EGFF/CWL METAR and TAF weather

Enter ICAO airport designator
Station Type Date Time Source
EGFF METAR 2021/04/13 07:20 UTC NOAA

EGFF 130720Z AUTO 10005KT 9999 BKN038 06/02 Q1033


Station Type Date Time Source
EGFF Decoded METAR 2021/04/13 07:20 UTC NOAA

Cardiff-Wales Airport, United Kingdom (EGFF) 51-24N 003-21W 0M
Apr 13, 2021 - 03:20 AM EDT / 2021.04.13 0720 UTC
Wind: from the E (100 degrees) at 6 MPH (5 KT):0
Visibility: greater than 7 mile(s):0
Sky conditions: mostly cloudy
Temperature: 42 F (6 C)
Dew Point: 35 F (2 C)
Relative Humidity: 75%
Pressure (altimeter): 30.50 in. Hg (1033 hPa)
ob: EGFF 130720Z AUTO 10005KT 9999 BKN038 06/02 Q1033
cycle: 7

Station Type Date Time Source
EGFF TAF 2021/04/13 06:09 UTC NOAA

TAF EGFF 130500Z 1306/1406 VRB04KT 9999 SCT035 PROB30 1306/1307 3000 BR PROB30
TEMPO 1312/1318 6000 SHRA PROB30 1403/1406 3000 BR

Example: see airport list